sensor_id;sensor_type;location;lat;lon;timestamp;P1;durP1;ratioP1;P2;durP2;ratioP2
67747;SDS011;54543;50.712;6.070;2023-07-28T00:01:29;1.40;;;1.00;;
67747;SDS011;54543;50.712;6.070;2023-07-28T00:03:55;1.80;;;1.33;;
67747;SDS011;54543;50.712;6.070;2023-07-28T00:06:21;2.30;;;1.50;;
67747;SDS011;54543;50.712;6.070;2023-07-28T00:08:46;1.67;;;1.33;;
67747;SDS011;54543;50.712;6.070;2023-07-28T00:11:13;1.88;;;1.20;;
67747;SDS011;54543;50.712;6.070;2023-07-28T00:13:39;1.95;;;1.40;;
67747;SDS011;54543;50.712;6.070;2023-07-28T00:16:06;2.88;;;1.25;;
67747;SDS011;54543;50.712;6.070;2023-07-28T00:18:32;2.42;;;1.23;;
67747;SDS011;54543;50.712;6.070;2023-07-28T00:20:58;1.60;;;1.10;;
67747;SDS011;54543;50.712;6.070;2023-07-28T00:23:23;2.05;;;1.17;;
67747;SDS011;54543;50.712;6.070;2023-07-28T00:25:49;1.05;;;0.80;;
67747;SDS011;54543;50.712;6.070;2023-07-28T00:28:15;2.03;;;1.30;;
67747;SDS011;54543;50.712;6.070;2023-07-28T00:30:40;1.30;;;0.98;;
67747;SDS011;54543;50.712;6.070;2023-07-28T00:33:06;1.33;;;1.17;;
67747;SDS011;54543;50.712;6.070;2023-07-28T00:35:31;1.20;;;1.10;;
67747;SDS011;54543;50.712;6.070;2023-07-28T00:37:57;1.77;;;1.13;;
67747;SDS011;54543;50.712;6.070;2023-07-28T00:40:23;1.42;;;1.10;;
67747;SDS011;54543;50.712;6.070;2023-07-28T00:42:48;1.23;;;0.95;;
67747;SDS011;54543;50.712;6.070;2023-07-28T00:45:14;1.05;;;0.95;;
67747;SDS011;54543;50.712;6.070;2023-07-28T00:47:40;1.65;;;1.00;;
67747;SDS011;54543;50.712;6.070;2023-07-28T00:50:06;1.27;;;1.08;;
67747;SDS011;54543;50.712;6.070;2023-07-28T00:52:33;2.38;;;1.52;;
67747;SDS011;54543;50.712;6.070;2023-07-28T00:54:59;2.58;;;1.40;;
67747;SDS011;54543;50.712;6.070;2023-07-28T00:57:25;2.50;;;1.58;;
67747;SDS011;54543;50.712;6.070;2023-07-28T00:59:51;2.17;;;1.50;;
67747;SDS011;54543;50.712;6.070;2023-07-28T01:02:18;2.05;;;1.50;;
67747;SDS011;54543;50.712;6.070;2023-07-28T01:04:44;2.13;;;1.70;;
67747;SDS011;54543;50.712;6.070;2023-07-28T01:07:13;2.63;;;1.85;;
67747;SDS011;54543;50.712;6.070;2023-07-28T01:10:20;2.67;;;1.70;;
67747;SDS011;54543;50.712;6.070;2023-07-28T01:12:40;3.63;;;1.80;;
67747;SDS011;54543;50.712;6.070;2023-07-28T01:15:06;3.58;;;2.20;;
67747;SDS011;54543;50.712;6.070;2023-07-28T01:17:31;3.70;;;2.00;;
67747;SDS011;54543;50.712;6.070;2023-07-28T01:19:57;2.78;;;1.75;;
67747;SDS011;54543;50.712;6.070;2023-07-28T01:28:10;3.05;;;1.77;;
67747;SDS011;54543;50.712;6.070;2023-07-28T01:30:38;3.80;;;2.65;;
67747;SDS011;54543;50.712;6.070;2023-07-28T01:33:07;2.30;;;1.63;;
67747;SDS011;54543;50.712;6.070;2023-07-28T01:35:34;3.40;;;1.90;;
67747;SDS011;54543;50.712;6.070;2023-07-28T01:38:05;4.60;;;2.55;;
67747;SDS011;54543;50.712;6.070;2023-07-28T01:40:30;3.38;;;2.13;;
67747;SDS011;54543;50.712;6.070;2023-07-28T01:42:56;4.25;;;2.70;;
67747;SDS011;54543;50.712;6.070;2023-07-28T01:45:22;4.70;;;2.42;;
67747;SDS011;54543;50.712;6.070;2023-07-28T01:47:47;4.65;;;2.30;;
67747;SDS011;54543;50.712;6.070;2023-07-28T01:50:13;3.63;;;2.13;;
67747;SDS011;54543;50.712;6.070;2023-07-28T01:52:39;3.95;;;2.47;;
67747;SDS011;54543;50.712;6.070;2023-07-28T01:55:04;3.13;;;2.10;;
67747;SDS011;54543;50.712;6.070;2023-07-28T01:57:34;5.10;;;2.55;;
67747;SDS011;54543;50.712;6.070;2023-07-28T01:59:59;4.38;;;2.65;;
67747;SDS011;54543;50.712;6.070;2023-07-28T02:02:25;4.40;;;2.22;;
67747;SDS011;54543;50.712;6.070;2023-07-28T02:04:51;4.47;;;2.85;;
67747;SDS011;54543;50.712;6.070;2023-07-28T02:07:16;3.75;;;2.50;;
67747;SDS011;54543;50.712;6.070;2023-07-28T02:09:42;4.30;;;2.25;;
67747;SDS011;54543;50.712;6.070;2023-07-28T02:12:08;3.33;;;2.38;;
67747;SDS011;54543;50.712;6.070;2023-07-28T02:14:33;4.00;;;2.55;;
67747;SDS011;54543;50.712;6.070;2023-07-28T02:16:59;5.22;;;2.85;;
67747;SDS011;54543;50.712;6.070;2023-07-28T02:19:24;3.40;;;1.92;;
67747;SDS011;54543;50.712;6.070;2023-07-28T02:21:50;3.47;;;2.40;;
67747;SDS011;54543;50.712;6.070;2023-07-28T02:24:16;3.65;;;2.17;;
67747;SDS011;54543;50.712;6.070;2023-07-28T02:26:41;3.25;;;2.20;;
67747;SDS011;54543;50.712;6.070;2023-07-28T02:29:07;3.72;;;2.38;;
67747;SDS011;54543;50.712;6.070;2023-07-28T02:31:32;3.58;;;2.05;;
67747;SDS011;54543;50.712;6.070;2023-07-28T02:33:58;3.75;;;2.53;;
67747;SDS011;54543;50.712;6.070;2023-07-28T02:36:23;3.25;;;2.20;;
67747;SDS011;54543;50.712;6.070;2023-07-28T02:38:49;2.63;;;1.80;;
67747;SDS011;54543;50.712;6.070;2023-07-28T02:41:14;4.32;;;1.95;;
67747;SDS011;54543;50.712;6.070;2023-07-28T02:43:40;3.15;;;1.80;;
67747;SDS011;54543;50.712;6.070;2023-07-28T02:46:05;3.35;;;1.75;;
67747;SDS011;54543;50.712;6.070;2023-07-28T02:48:31;3.50;;;1.95;;
67747;SDS011;54543;50.712;6.070;2023-07-28T02:50:57;2.92;;;1.80;;
67747;SDS011;54543;50.712;6.070;2023-07-28T02:53:22;2.85;;;1.77;;
67747;SDS011;54543;50.712;6.070;2023-07-28T02:55:48;2.67;;;1.60;;
67747;SDS011;54543;50.712;6.070;2023-07-28T02:58:14;3.30;;;2.00;;
67747;SDS011;54543;50.712;6.070;2023-07-28T03:00:40;2.70;;;1.77;;
67747;SDS011;54543;50.712;6.070;2023-07-28T03:03:09;2.28;;;1.67;;
67747;SDS011;54543;50.712;6.070;2023-07-28T03:05:36;3.10;;;2.05;;
67747;SDS011;54543;50.712;6.070;2023-07-28T03:08:02;2.33;;;1.58;;
67747;SDS011;54543;50.712;6.070;2023-07-28T03:10:28;2.28;;;1.40;;
67747;SDS011;54543;50.712;6.070;2023-07-28T03:12:54;1.75;;;1.42;;
67747;SDS011;54543;50.712;6.070;2023-07-28T03:15:20;2.60;;;1.80;;
67747;SDS011;54543;50.712;6.070;2023-07-28T03:17:47;2.33;;;1.50;;
67747;SDS011;54543;50.712;6.070;2023-07-28T03:20:13;2.08;;;1.27;;
67747;SDS011;54543;50.712;6.070;2023-07-28T03:22:39;1.70;;;1.10;;
67747;SDS011;54543;50.712;6.070;2023-07-28T03:25:05;2.20;;;1.30;;
67747;SDS011;54543;50.712;6.070;2023-07-28T03:27:30;2.35;;;1.38;;
67747;SDS011;54543;50.712;6.070;2023-07-28T03:29:56;1.45;;;1.05;;
67747;SDS011;54543;50.712;6.070;2023-07-28T03:32:21;1.50;;;0.90;;
67747;SDS011;54543;50.712;6.070;2023-07-28T03:34:47;1.40;;;1.00;;
67747;SDS011;54543;50.712;6.070;2023-07-28T03:37:12;1.83;;;1.20;;
67747;SDS011;54543;50.712;6.070;2023-07-28T03:39:38;1.40;;;0.90;;
67747;SDS011;54543;50.712;6.070;2023-07-28T03:42:04;1.67;;;1.00;;
67747;SDS011;54543;50.712;6.070;2023-07-28T03:44:30;1.40;;;0.90;;
67747;SDS011;54543;50.712;6.070;2023-07-28T03:46:55;1.10;;;0.82;;
67747;SDS011;54543;50.712;6.070;2023-07-28T03:49:21;1.33;;;0.90;;
67747;SDS011;54543;50.712;6.070;2023-07-28T03:51:47;1.30;;;0.88;;
67747;SDS011;54543;50.712;6.070;2023-07-28T03:54:12;1.20;;;0.70;;
67747;SDS011;54543;50.712;6.070;2023-07-28T03:56:38;1.08;;;0.88;;
67747;SDS011;54543;50.712;6.070;2023-07-28T03:59:03;0.82;;;0.60;;
67747;SDS011;54543;50.712;6.070;2023-07-28T04:01:29;0.55;;;0.52;;
67747;SDS011;54543;50.712;6.070;2023-07-28T04:03:54;0.98;;;0.68;;
67747;SDS011;54543;50.712;6.070;2023-07-28T04:06:35;1.85;;;0.80;;
67747;SDS011;54543;50.712;6.070;2023-07-28T04:09:12;0.63;;;0.60;;
67747;SDS011;54543;50.712;6.070;2023-07-28T04:11:40;1.67;;;1.20;;
67747;SDS011;54543;50.712;6.070;2023-07-28T04:14:06;1.73;;;1.33;;
67747;SDS011;54543;50.712;6.070;2023-07-28T04:16:32;1.90;;;1.50;;
67747;SDS011;54543;50.712;6.070;2023-07-28T04:18:58;1.70;;;1.20;;
67747;SDS011;54543;50.712;6.070;2023-07-28T04:21:24;1.75;;;1.30;;
67747;SDS011;54543;50.712;6.070;2023-07-28T04:23:50;1.48;;;1.17;;
67747;SDS011;54543;50.712;6.070;2023-07-28T04:26:18;1.38;;;0.95;;
67747;SDS011;54543;50.712;6.070;2023-07-28T04:28:44;2.60;;;1.85;;
67747;SDS011;54543;50.712;6.070;2023-07-28T04:31:10;1.67;;;1.38;;
67747;SDS011;54543;50.712;6.070;2023-07-28T04:33:36;1.88;;;1.40;;
67747;SDS011;54543;50.712;6.070;2023-07-28T04:36:04;2.50;;;1.63;;
67747;SDS011;54543;50.712;6.070;2023-07-28T04:38:30;2.63;;;1.50;;
67747;SDS011;54543;50.712;6.070;2023-07-28T04:40:55;2.75;;;1.92;;
67747;SDS011;54543;50.712;6.070;2023-07-28T04:43:21;2.40;;;1.60;;
67747;SDS011;54543;50.712;6.070;2023-07-28T04:45:47;6.18;;;4.55;;
67747;SDS011;54543;50.712;6.070;2023-07-28T04:48:12;2.78;;;2.05;;
67747;SDS011;54543;50.712;6.070;2023-07-28T04:50:38;2.90;;;1.70;;
67747;SDS011;54543;50.712;6.070;2023-07-28T04:53:03;4.97;;;3.67;;
67747;SDS011;54543;50.712;6.070;2023-07-28T04:55:29;2.97;;;1.92;;
67747;SDS011;54543;50.712;6.070;2023-07-28T04:57:55;3.72;;;2.78;;
67747;SDS011;54543;50.712;6.070;2023-07-28T05:00:21;4.10;;;2.67;;
67747;SDS011;54543;50.712;6.070;2023-07-28T05:02:47;8.75;;;6.25;;
67747;SDS011;54543;50.712;6.070;2023-07-28T05:05:12;3.88;;;2.80;;
67747;SDS011;54543;50.712;6.070;2023-07-28T05:07:38;5.38;;;3.67;;
67747;SDS011;54543;50.712;6.070;2023-07-28T05:10:04;4.50;;;3.13;;
67747;SDS011;54543;50.712;6.070;2023-07-28T05:12:29;5.35;;;3.95;;
67747;SDS011;54543;50.712;6.070;2023-07-28T05:14:55;11.10;;;6.57;;
67747;SDS011;54543;50.712;6.070;2023-07-28T05:17:21;5.28;;;3.42;;
67747;SDS011;54543;50.712;6.070;2023-07-28T05:19:46;5.10;;;3.30;;
67747;SDS011;54543;50.712;6.070;2023-07-28T05:22:12;6.80;;;4.40;;
67747;SDS011;54543;50.712;6.070;2023-07-28T05:24:37;4.47;;;2.95;;
67747;SDS011;54543;50.712;6.070;2023-07-28T05:27:03;4.38;;;2.70;;
67747;SDS011;54543;50.712;6.070;2023-07-28T05:29:29;4.35;;;2.80;;
67747;SDS011;54543;50.712;6.070;2023-07-28T05:31:54;3.85;;;2.53;;
67747;SDS011;54543;50.712;6.070;2023-07-28T05:34:20;3.42;;;2.20;;
67747;SDS011;54543;50.712;6.070;2023-07-28T05:36:45;3.20;;;1.70;;
67747;SDS011;54543;50.712;6.070;2023-07-28T05:39:10;3.17;;;2.10;;
67747;SDS011;54543;50.712;6.070;2023-07-28T05:41:37;2.67;;;1.65;;
67747;SDS011;54543;50.712;6.070;2023-07-28T05:44:02;2.20;;;1.50;;
67747;SDS011;54543;50.712;6.070;2023-07-28T05:46:28;3.00;;;1.65;;
67747;SDS011;54543;50.712;6.070;2023-07-28T05:48:54;5.85;;;2.50;;
67747;SDS011;54543;50.712;6.070;2023-07-28T05:51:21;4.97;;;2.47;;
67747;SDS011;54543;50.712;6.070;2023-07-28T05:53:47;5.47;;;2.70;;
67747;SDS011;54543;50.712;6.070;2023-07-28T05:56:13;6.68;;;2.67;;
67747;SDS011;54543;50.712;6.070;2023-07-28T06:01:10;6.60;;;3.13;;
67747;SDS011;54543;50.712;6.070;2023-07-28T06:03:35;4.40;;;2.30;;
67747;SDS011;54543;50.712;6.070;2023-07-28T06:06:01;6.82;;;3.50;;
67747;SDS011;54543;50.712;6.070;2023-07-28T06:08:29;4.82;;;2.20;;
67747;SDS011;54543;50.712;6.070;2023-07-28T06:10:57;4.40;;;2.13;;
67747;SDS011;54543;50.712;6.070;2023-07-28T06:13:22;3.50;;;1.80;;
67747;SDS011;54543;50.712;6.070;2023-07-28T06:15:48;4.68;;;2.20;;
67747;SDS011;54543;50.712;6.070;2023-07-28T06:18:15;3.78;;;1.70;;
67747;SDS011;54543;50.712;6.070;2023-07-28T06:20:44;3.40;;;1.90;;
67747;SDS011;54543;50.712;6.070;2023-07-28T06:23:11;3.17;;;1.80;;
67747;SDS011;54543;50.712;6.070;2023-07-28T06:25:36;2.78;;;1.60;;
67747;SDS011;54543;50.712;6.070;2023-07-28T06:28:10;4.65;;;1.70;;
67747;SDS011;54543;50.712;6.070;2023-07-28T06:30:41;5.15;;;2.70;;
67747;SDS011;54543;50.712;6.070;2023-07-28T06:33:07;3.00;;;2.10;;
67747;SDS011;54543;50.712;6.070;2023-07-28T06:35:33;5.20;;;2.55;;
67747;SDS011;54543;50.712;6.070;2023-07-28T06:37:59;5.70;;;2.63;;
67747;SDS011;54543;50.712;6.070;2023-07-28T06:40:25;3.67;;;2.20;;
67747;SDS011;54543;50.712;6.070;2023-07-28T06:42:52;2.30;;;1.48;;
67747;SDS011;54543;50.712;6.070;2023-07-28T06:45:17;3.63;;;2.20;;
67747;SDS011;54543;50.712;6.070;2023-07-28T06:47:43;2.65;;;1.40;;
67747;SDS011;54543;50.712;6.070;2023-07-28T06:50:10;8.00;;;4.85;;
67747;SDS011;54543;50.712;6.070;2023-07-28T06:52:36;4.60;;;3.00;;
67747;SDS011;54543;50.712;6.070;2023-07-28T06:55:02;3.38;;;2.28;;
67747;SDS011;54543;50.712;6.070;2023-07-28T06:57:27;5.47;;;2.75;;
67747;SDS011;54543;50.712;6.070;2023-07-28T06:59:53;3.85;;;2.13;;
67747;SDS011;54543;50.712;6.070;2023-07-28T07:02:18;3.53;;;2.10;;
67747;SDS011;54543;50.712;6.070;2023-07-28T07:04:44;4.10;;;2.80;;
67747;SDS011;54543;50.712;6.070;2023-07-28T07:07:09;3.17;;;1.90;;
67747;SDS011;54543;50.712;6.070;2023-07-28T07:09:35;3.05;;;1.95;;
67747;SDS011;54543;50.712;6.070;2023-07-28T07:12:01;3.40;;;1.90;;
67747;SDS011;54543;50.712;6.070;2023-07-28T07:14:27;5.50;;;3.45;;
67747;SDS011;54543;50.712;6.070;2023-07-28T07:16:53;4.07;;;2.22;;
67747;SDS011;54543;50.712;6.070;2023-07-28T07:19:18;5.13;;;3.33;;
67747;SDS011;54543;50.712;6.070;2023-07-28T07:21:45;6.40;;;3.60;;
67747;SDS011;54543;50.712;6.070;2023-07-28T07:24:12;11.98;;;4.65;;
67747;SDS011;54543;50.712;6.070;2023-07-28T07:26:41;4.50;;;2.58;;
67747;SDS011;54543;50.712;6.070;2023-07-28T07:29:07;2.90;;;1.98;;
67747;SDS011;54543;50.712;6.070;2023-07-28T07:31:33;4.95;;;2.83;;
67747;SDS011;54543;50.712;6.070;2023-07-28T07:33:59;13.73;;;6.70;;
67747;SDS011;54543;50.712;6.070;2023-07-28T07:36:25;6.55;;;3.42;;
67747;SDS011;54543;50.712;6.070;2023-07-28T07:38:50;7.97;;;3.80;;
67747;SDS011;54543;50.712;6.070;2023-07-28T07:41:16;6.10;;;2.95;;
67747;SDS011;54543;50.712;6.070;2023-07-28T07:43:45;4.28;;;2.38;;
67747;SDS011;54543;50.712;6.070;2023-07-28T07:46:11;5.10;;;2.92;;
67747;SDS011;54543;50.712;6.070;2023-07-28T07:48:37;4.45;;;2.65;;
67747;SDS011;54543;50.712;6.070;2023-07-28T07:51:03;6.45;;;3.45;;
67747;SDS011;54543;50.712;6.070;2023-07-28T07:53:28;3.30;;;2.03;;
67747;SDS011;54543;50.712;6.070;2023-07-28T07:55:54;3.45;;;1.95;;
67747;SDS011;54543;50.712;6.070;2023-07-28T07:58:19;3.70;;;2.00;;
67747;SDS011;54543;50.712;6.070;2023-07-28T08:00:45;9.00;;;4.45;;
67747;SDS011;54543;50.712;6.070;2023-07-28T08:03:11;13.25;;;6.75;;
67747;SDS011;54543;50.712;6.070;2023-07-28T08:05:36;7.57;;;4.13;;
67747;SDS011;54543;50.712;6.070;2023-07-28T08:08:02;5.32;;;3.53;;
67747;SDS011;54543;50.712;6.070;2023-07-28T08:10:28;3.88;;;2.50;;
67747;SDS011;54543;50.712;6.070;2023-07-28T08:12:55;6.45;;;3.05;;
67747;SDS011;54543;50.712;6.070;2023-07-28T08:15:20;5.72;;;2.75;;
67747;SDS011;54543;50.712;6.070;2023-07-28T08:17:46;3.80;;;2.15;;
67747;SDS011;54543;50.712;6.070;2023-07-28T08:20:12;5.47;;;2.92;;
67747;SDS011;54543;50.712;6.070;2023-07-28T08:22:37;5.45;;;2.78;;
67747;SDS011;54543;50.712;6.070;2023-07-28T08:25:03;4.90;;;2.65;;
67747;SDS011;54543;50.712;6.070;2023-07-28T08:27:31;5.40;;;2.35;;
67747;SDS011;54543;50.712;6.070;2023-07-28T08:29:56;2.88;;;1.60;;
67747;SDS011;54543;50.712;6.070;2023-07-28T08:32:22;6.28;;;3.35;;
67747;SDS011;54543;50.712;6.070;2023-07-28T08:34:47;7.18;;;3.85;;
67747;SDS011;54543;50.712;6.070;2023-07-28T08:37:13;4.22;;;2.75;;
67747;SDS011;54543;50.712;6.070;2023-07-28T08:39:39;9.68;;;3.92;;
67747;SDS011;54543;50.712;6.070;2023-07-28T08:42:04;3.65;;;2.40;;
67747;SDS011;54543;50.712;6.070;2023-07-28T08:44:31;7.53;;;4.07;;
67747;SDS011;54543;50.712;6.070;2023-07-28T08:46:58;4.07;;;2.58;;
67747;SDS011;54543;50.712;6.070;2023-07-28T08:49:25;5.68;;;3.03;;
67747;SDS011;54543;50.712;6.070;2023-07-28T08:51:51;4.70;;;2.20;;
67747;SDS011;54543;50.712;6.070;2023-07-28T08:54:17;3.15;;;2.40;;
67747;SDS011;54543;50.712;6.070;2023-07-28T08:56:43;7.22;;;3.30;;
67747;SDS011;54543;50.712;6.070;2023-07-28T08:59:09;3.90;;;2.33;;
67747;SDS011;54543;50.712;6.070;2023-07-28T09:01:41;4.63;;;2.38;;
67747;SDS011;54543;50.712;6.070;2023-07-28T09:04:11;3.47;;;2.15;;
67747;SDS011;54543;50.712;6.070;2023-07-28T09:06:37;3.63;;;2.17;;
67747;SDS011;54543;50.712;6.070;2023-07-28T09:09:06;5.35;;;3.33;;
67747;SDS011;54543;50.712;6.070;2023-07-28T09:11:32;5.85;;;3.40;;
67747;SDS011;54543;50.712;6.070;2023-07-28T09:13:59;5.22;;;3.30;;
67747;SDS011;54543;50.712;6.070;2023-07-28T09:16:25;6.55;;;3.63;;
67747;SDS011;54543;50.712;6.070;2023-07-28T09:18:57;3.60;;;2.28;;
67747;SDS011;54543;50.712;6.070;2023-07-28T09:21:30;3.75;;;2.20;;
67747;SDS011;54543;50.712;6.070;2023-07-28T09:23:55;2.63;;;1.85;;
67747;SDS011;54543;50.712;6.070;2023-07-28T09:26:21;4.13;;;2.28;;
67747;SDS011;54543;50.712;6.070;2023-07-28T09:28:47;4.72;;;2.40;;
67747;SDS011;54543;50.712;6.070;2023-07-28T09:31:13;3.40;;;1.98;;
67747;SDS011;54543;50.712;6.070;2023-07-28T09:33:39;4.03;;;2.50;;
67747;SDS011;54543;50.712;6.070;2023-07-28T09:36:13;4.20;;;2.80;;
67747;SDS011;54543;50.712;6.070;2023-07-28T09:38:41;4.55;;;2.75;;
67747;SDS011;54543;50.712;6.070;2023-07-28T09:41:08;5.28;;;2.90;;
67747;SDS011;54543;50.712;6.070;2023-07-28T09:43:36;3.35;;;2.25;;
67747;SDS011;54543;50.712;6.070;2023-07-28T09:46:09;4.65;;;3.10;;
67747;SDS011;54543;50.712;6.070;2023-07-28T09:48:37;2.65;;;2.10;;
67747;SDS011;54543;50.712;6.070;2023-07-28T09:51:14;4.38;;;2.35;;
67747;SDS011;54543;50.712;6.070;2023-07-28T09:53:55;2.40;;;1.65;;
67747;SDS011;54543;50.712;6.070;2023-07-28T09:56:30;2.90;;;1.90;;
67747;SDS011;54543;50.712;6.070;2023-07-28T09:58:56;1.40;;;1.30;;
67747;SDS011;54543;50.712;6.070;2023-07-28T10:01:23;2.88;;;2.03;;
67747;SDS011;54543;50.712;6.070;2023-07-28T10:03:48;3.58;;;2.30;;
67747;SDS011;54543;50.712;6.070;2023-07-28T10:06:15;3.33;;;2.20;;
67747;SDS011;54543;50.712;6.070;2023-07-28T10:08:42;2.53;;;2.03;;
67747;SDS011;54543;50.712;6.070;2023-07-28T10:11:09;4.22;;;2.65;;
67747;SDS011;54543;50.712;6.070;2023-07-28T10:13:40;2.83;;;2.05;;
67747;SDS011;54543;50.712;6.070;2023-07-28T10:16:11;4.45;;;2.70;;
67747;SDS011;54543;50.712;6.070;2023-07-28T10:18:39;2.75;;;2.10;;
67747;SDS011;54543;50.712;6.070;2023-07-28T10:21:15;4.18;;;2.92;;
67747;SDS011;54543;50.712;6.070;2023-07-28T10:23:41;5.50;;;3.70;;
67747;SDS011;54543;50.712;6.070;2023-07-28T10:26:07;3.38;;;1.98;;
67747;SDS011;54543;50.712;6.070;2023-07-28T10:28:35;2.47;;;1.52;;
67747;SDS011;54543;50.712;6.070;2023-07-28T10:31:07;5.20;;;2.97;;
67747;SDS011;54543;50.712;6.070;2023-07-28T10:33:38;4.60;;;2.33;;
67747;SDS011;54543;50.712;6.070;2023-07-28T10:36:16;4.95;;;2.70;;
67747;SDS011;54543;50.712;6.070;2023-07-28T10:41:40;3.95;;;2.55;;
67747;SDS011;54543;50.712;6.070;2023-07-28T10:44:26;2.75;;;1.80;;
67747;SDS011;54543;50.712;6.070;2023-07-28T10:46:52;3.67;;;2.50;;
67747;SDS011;54543;50.712;6.070;2023-07-28T10:49:19;3.13;;;1.98;;
67747;SDS011;54543;50.712;6.070;2023-07-28T10:51:44;3.75;;;2.28;;
67747;SDS011;54543;50.712;6.070;2023-07-28T10:54:10;2.47;;;1.88;;
67747;SDS011;54543;50.712;6.070;2023-07-28T10:56:40;2.15;;;1.52;;
67747;SDS011;54543;50.712;6.070;2023-07-28T10:59:06;3.47;;;2.30;;
67747;SDS011;54543;50.712;6.070;2023-07-28T11:01:35;3.65;;;2.10;;
67747;SDS011;54543;50.712;6.070;2023-07-28T11:04:09;2.58;;;1.70;;
67747;SDS011;54543;50.712;6.070;2023-07-28T11:06:44;5.93;;;2.20;;
67747;SDS011;54543;50.712;6.070;2023-07-28T11:09:13;4.20;;;2.30;;
67747;SDS011;54543;50.712;6.070;2023-07-28T11:11:40;2.38;;;1.77;;
67747;SDS011;54543;50.712;6.070;2023-07-28T11:14:06;1.55;;;1.30;;
67747;SDS011;54543;50.712;6.070;2023-07-28T11:16:37;3.33;;;1.67;;
67747;SDS011;54543;50.712;6.070;2023-07-28T11:19:10;1.92;;;1.40;;
67747;SDS011;54543;50.712;6.070;2023-07-28T11:21:40;2.90;;;1.70;;
67747;SDS011;54543;50.712;6.070;2023-07-28T11:24:07;2.15;;;1.40;;
67747;SDS011;54543;50.712;6.070;2023-07-28T11:26:34;1.65;;;1.20;;
67747;SDS011;54543;50.712;6.070;2023-07-28T11:29:00;1.40;;;1.30;;
67747;SDS011;54543;50.712;6.070;2023-07-28T11:31:25;1.98;;;1.40;;
67747;SDS011;54543;50.712;6.070;2023-07-28T11:33:51;1.45;;;1.10;;
67747;SDS011;54543;50.712;6.070;2023-07-28T11:36:28;2.03;;;1.42;;
67747;SDS011;54543;50.712;6.070;2023-07-28T11:38:55;3.58;;;1.50;;
67747;SDS011;54543;50.712;6.070;2023-07-28T11:41:23;1.27;;;1.02;;
67747;SDS011;54543;50.712;6.070;2023-07-28T11:43:50;1.10;;;1.00;;
67747;SDS011;54543;50.712;6.070;2023-07-28T11:46:36;1.45;;;1.30;;
67747;SDS011;54543;50.712;6.070;2023-07-28T11:51:36;1.25;;;1.10;;
67747;SDS011;54543;50.712;6.070;2023-07-28T11:54:04;1.30;;;1.20;;
67747;SDS011;54543;50.712;6.070;2023-07-28T11:56:31;2.08;;;1.35;;
67747;SDS011;54543;50.712;6.070;2023-07-28T11:58:56;1.58;;;1.35;;
67747;SDS011;54543;50.712;6.070;2023-07-28T12:01:23;1.73;;;1.02;;
67747;SDS011;54543;50.712;6.070;2023-07-28T12:03:50;1.13;;;1.02;;
67747;SDS011;54543;50.712;6.070;2023-07-28T12:06:15;1.60;;;1.00;;
67747;SDS011;54543;50.712;6.070;2023-07-28T12:08:40;1.33;;;1.00;;
67747;SDS011;54543;50.712;6.070;2023-07-28T12:11:11;0.95;;;0.80;;
67747;SDS011;54543;50.712;6.070;2023-07-28T12:13:52;0.85;;;0.82;;
67747;SDS011;54543;50.712;6.070;2023-07-28T12:19:09;3.30;;;2.20;;
67747;SDS011;54543;50.712;6.070;2023-07-28T12:21:34;2.13;;;1.30;;
67747;SDS011;54543;50.712;6.070;2023-07-28T12:24:00;1.35;;;0.95;;
67747;SDS011;54543;50.712;6.070;2023-07-28T12:26:26;1.00;;;0.85;;
67747;SDS011;54543;50.712;6.070;2023-07-28T12:28:51;1.42;;;1.13;;
67747;SDS011;54543;50.712;6.070;2023-07-28T12:31:16;2.42;;;1.63;;
67747;SDS011;54543;50.712;6.070;2023-07-28T12:33:42;1.65;;;1.10;;
67747;SDS011;54543;50.712;6.070;2023-07-28T12:36:07;0.82;;;0.80;;
67747;SDS011;54543;50.712;6.070;2023-07-28T12:38:33;3.13;;;1.95;;
67747;SDS011;54543;50.712;6.070;2023-07-28T12:40:59;2.78;;;1.73;;
67747;SDS011;54543;50.712;6.070;2023-07-28T12:43:24;1.77;;;1.20;;
67747;SDS011;54543;50.712;6.070;2023-07-28T12:45:51;1.92;;;1.20;;
67747;SDS011;54543;50.712;6.070;2023-07-28T12:48:18;2.20;;;0.90;;
67747;SDS011;54543;50.712;6.070;2023-07-28T12:50:44;1.38;;;0.90;;
67747;SDS011;54543;50.712;6.070;2023-07-28T12:53:10;0.63;;;0.60;;
67747;SDS011;54543;50.712;6.070;2023-07-28T12:55:35;1.77;;;0.68;;
67747;SDS011;54543;50.712;6.070;2023-07-28T12:58:02;0.57;;;0.55;;
67747;SDS011;54543;50.712;6.070;2023-07-28T13:00:28;0.82;;;0.65;;
67747;SDS011;54543;50.712;6.070;2023-07-28T13:02:53;1.27;;;0.90;;
67747;SDS011;54543;50.712;6.070;2023-07-28T13:05:19;0.93;;;0.60;;
67747;SDS011;54543;50.712;6.070;2023-07-28T13:07:44;0.82;;;0.60;;
67747;SDS011;54543;50.712;6.070;2023-07-28T13:10:10;2.05;;;1.10;;
67747;SDS011;54543;50.712;6.070;2023-07-28T13:12:36;0.70;;;0.70;;
67747;SDS011;54543;50.712;6.070;2023-07-28T13:15:02;0.65;;;0.50;;
67747;SDS011;54543;50.712;6.070;2023-07-28T13:17:28;0.40;;;0.40;;
67747;SDS011;54543;50.712;6.070;2023-07-28T13:19:54;0.45;;;0.30;;
67747;SDS011;54543;50.712;6.070;2023-07-28T13:22:22;0.40;;;0.40;;
67747;SDS011;54543;50.712;6.070;2023-07-28T13:24:48;0.98;;;0.80;;
67747;SDS011;54543;50.712;6.070;2023-07-28T13:27:13;0.85;;;0.77;;
67747;SDS011;54543;50.712;6.070;2023-07-28T13:29:39;0.50;;;0.50;;
67747;SDS011;54543;50.712;6.070;2023-07-28T13:32:09;0.60;;;0.60;;
67747;SDS011;54543;50.712;6.070;2023-07-28T13:34:41;0.30;;;0.30;;
67747;SDS011;54543;50.712;6.070;2023-07-28T13:37:06;0.50;;;0.50;;
67747;SDS011;54543;50.712;6.070;2023-07-28T13:39:32;0.50;;;0.50;;
67747;SDS011;54543;50.712;6.070;2023-07-28T13:41:57;1.27;;;0.88;;
67747;SDS011;54543;50.712;6.070;2023-07-28T13:44:23;0.60;;;0.60;;
67747;SDS011;54543;50.712;6.070;2023-07-28T13:46:48;0.40;;;0.40;;
67747;SDS011;54543;50.712;6.070;2023-07-28T13:49:14;0.40;;;0.40;;
67747;SDS011;54543;50.712;6.070;2023-07-28T13:51:39;0.65;;;0.50;;
67747;SDS011;54543;50.712;6.070;2023-07-28T13:54:05;1.67;;;0.60;;
67747;SDS011;54543;50.712;6.070;2023-07-28T13:56:30;0.50;;;0.50;;
67747;SDS011;54543;50.712;6.070;2023-07-28T13:58:56;0.70;;;0.60;;
67747;SDS011;54543;50.712;6.070;2023-07-28T14:01:21;0.50;;;0.50;;
67747;SDS011;54543;50.712;6.070;2023-07-28T14:03:47;0.57;;;0.57;;
67747;SDS011;54543;50.712;6.070;2023-07-28T14:06:12;0.45;;;0.45;;
67747;SDS011;54543;50.712;6.070;2023-07-28T14:08:38;0.52;;;0.50;;
67747;SDS011;54543;50.712;6.070;2023-07-28T14:11:04;0.43;;;0.40;;
67747;SDS011;54543;50.712;6.070;2023-07-28T14:13:29;0.30;;;0.30;;
67747;SDS011;54543;50.712;6.070;2023-07-28T14:15:55;0.30;;;0.30;;
67747;SDS011;54543;50.712;6.070;2023-07-28T14:18:20;0.50;;;0.50;;
67747;SDS011;54543;50.712;6.070;2023-07-28T14:20:46;0.47;;;0.47;;
67747;SDS011;54543;50.712;6.070;2023-07-28T14:23:21;0.57;;;0.45;;
67747;SDS011;54543;50.712;6.070;2023-07-28T14:25:48;0.50;;;0.50;;
67747;SDS011;54543;50.712;6.070;2023-07-28T14:28:14;0.70;;;0.70;;
67747;SDS011;54543;50.712;6.070;2023-07-28T14:30:39;0.88;;;0.75;;
67747;SDS011;54543;50.712;6.070;2023-07-28T14:33:05;0.73;;;0.70;;
67747;SDS011;54543;50.712;6.070;2023-07-28T14:35:31;0.60;;;0.60;;
67747;SDS011;54543;50.712;6.070;2023-07-28T14:37:56;0.80;;;0.70;;
67747;SDS011;54543;50.712;6.070;2023-07-28T14:40:21;0.60;;;0.60;;
67747;SDS011;54543;50.712;6.070;2023-07-28T14:42:47;0.60;;;0.60;;
67747;SDS011;54543;50.712;6.070;2023-07-28T14:45:12;0.50;;;0.50;;
67747;SDS011;54543;50.712;6.070;2023-07-28T14:47:38;1.08;;;0.70;;
67747;SDS011;54543;50.712;6.070;2023-07-28T14:50:04;0.80;;;0.50;;
67747;SDS011;54543;50.712;6.070;2023-07-28T14:52:29;0.50;;;0.50;;
67747;SDS011;54543;50.712;6.070;2023-07-28T14:54:55;0.50;;;0.50;;
67747;SDS011;54543;50.712;6.070;2023-07-28T14:57:20;0.40;;;0.40;;
67747;SDS011;54543;50.712;6.070;2023-07-28T14:59:46;0.50;;;0.50;;
67747;SDS011;54543;50.712;6.070;2023-07-28T15:02:11;2.33;;;0.50;;